Time;durP1;ratioP1;P1;durP2;ratioP2;P2;SDS_P1;SDS_P2;PMS_P1;PMS_P2;Temp;Humidity;BMP_temperature;BMP_pressure;BME280_temperature;BME280_humidity;BME280_pressure;Samples;Min_cycle;Max_cycle;Signal;HPM_P1;HPM_P2
2022/05/14 00:00:05;;;;;;;8.95;5.70;;;;;;;19.21;50.02;94589.69;4142532;28;20149;-52
2022/05/14 00:02:07;;;;;;;9.18;5.10;;;;;;;19.15;50.50;94585.22;4142350;28;20132;-52
2022/05/14 00:04:10;;;;;;;9.38;5.25;;;;;;;19.05;50.48;94584.88;4141937;28;20112;-53
2022/05/14 00:06:15;;;;;;;11.88;5.95;;;;;;;18.94;50.85;94589.81;4140688;28;20058;-54
2022/05/14 00:08:17;;;;;;;7.60;5.68;;;;;;;19.00;50.96;94585.50;4138958;28;20148;-51
2022/05/14 00:10:21;;;;;;;10.80;5.60;;;;;;;19.11;50.81;94576.84;4142530;28;20587;-55
2022/05/14 00:14:43;;;;;;;7.78;4.88;;;;;;;19.32;50.57;94567.72;4142425;28;20049;-56
2022/05/14 00:16:45;;;;;;;11.23;5.70;;;;;;;19.44;50.19;94567.81;4142652;28;20422;-56
2022/05/14 00:18:47;;;;;;;9.27;5.70;;;;;;;19.53;49.84;94565.69;4141877;28;20464;-53
2022/05/14 00:20:51;;;;;;;10.15;6.03;;;;;;;19.57;49.92;94569.56;4142535;28;20256;-57
2022/05/14 00:22:52;;;;;;;10.15;6.07;;;;;;;19.62;49.82;94570.53;4141267;28;20143;-54
2022/05/14 00:24:54;;;;;;;10.27;6.32;;;;;;;19.68;49.58;94571.53;4141696;28;20106;-59
2022/05/14 00:26:56;;;;;;;8.10;5.60;;;;;;;19.68;49.29;94562.72;4142365;28;20054;-52
2022/05/14 00:28:59;;;;;;;10.55;5.50;;;;;;;19.73;49.22;94568.22;4142294;28;20126;-52
2022/05/14 00:31:00;;;;;;;8.13;5.60;;;;;;;19.70;49.48;94571.31;4142423;28;20470;-53
2022/05/14 00:33:03;;;;;;;10.27;6.43;;;;;;;19.71;49.40;94562.31;4142028;28;20081;-54
2022/05/14 00:35:06;;;;;;;12.10;5.75;;;;;;;19.74;49.63;94569.84;4142003;28;20058;-52
2022/05/14 00:37:07;;;;;;;9.80;5.93;;;;;;;19.78;49.57;94560.41;4142196;28;20050;-54
2022/05/14 00:39:09;;;;;;;13.50;6.25;;;;;;;19.79;49.57;94562.03;4140796;28;20569;-51
2022/05/14 00:41:11;;;;;;;10.25;6.07;;;;;;;19.80;49.98;94561.00;4142126;28;20102;-53
2022/05/14 00:43:13;;;;;;;9.25;5.82;;;;;;;19.77;49.92;94564.91;4141802;28;20203;-54
2022/05/14 00:45:19;;;;;;;9.75;5.70;;;;;;;19.77;50.00;94569.44;4141919;28;20142;-52
2022/05/14 00:47:21;;;;;;;8.65;6.18;;;;;;;19.70;50.29;94564.16;4142275;28;20050;-52
2022/05/14 00:49:24;;;;;;;11.13;6.13;;;;;;;19.64;50.59;94565.00;4138285;28;20106;-54
2022/05/14 00:51:28;;;;;;;9.52;5.65;;;;;;;19.55;50.76;94569.78;4131955;28;20055;-54
2022/05/14 00:53:33;;;;;;;10.13;5.53;;;;;;;19.39;50.71;94557.84;4139039;28;20140;-52
2022/05/14 00:55:36;;;;;;;7.65;5.70;;;;;;;19.28;51.25;94561.22;4142049;28;20061;-54
2022/05/14 00:57:40;;;;;;;13.60;6.38;;;;;;;19.20;51.35;94559.63;4140611;28;20160;-53
2022/05/14 00:59:42;;;;;;;8.38;5.95;;;;;;;19.10;51.67;94566.44;4145176;28;20124;-54
2022/05/14 01:01:44;;;;;;;9.25;6.22;;;;;;;19.05;51.99;94558.31;4145205;28;20553;-54
2022/05/14 01:03:47;;;;;;;8.80;6.35;;;;;;;18.90;52.43;94562.06;4143319;28;20050;-52
2022/05/14 01:05:49;;;;;;;10.30;6.28;;;;;;;18.67;53.19;94567.09;4145172;28;20430;-52
2022/05/14 01:07:53;;;;;;;11.25;6.25;;;;;;;18.32;53.96;94564.81;4140081;28;20061;-54
2022/05/14 01:10:01;;;;;;;;;;;;;;;18.18;54.70;94572.00;4143484;28;20050;-54
2022/05/14 01:12:04;;;;;;;9.73;6.95;;;;;;;18.08;55.27;94568.97;4128776;28;19922;-54
2022/05/14 01:14:06;;;;;;;12.23;6.70;;;;;;;18.08;55.11;94569.78;4132764;28;20046;-57
2022/05/14 01:16:08;;;;;;;13.75;6.45;;;;;;;18.12;54.80;94564.88;4142527;28;20045;-53
2022/05/14 01:18:10;;;;;;;13.10;6.35;;;;;;;18.20;55.08;94562.81;4144483;28;20104;-53
2022/05/14 01:20:14;;;;;;;12.60;6.75;;;;;;;18.30;54.73;94566.84;4145066;28;20073;-53
2022/05/14 01:22:38;;;;;;;9.30;6.78;;;;;;;18.40;54.11;94564.56;4144675;28;20128;-55
2022/05/14 01:27:06;;;;;;;9.55;6.43;;;;;;;18.58;53.68;94563.88;4145075;28;20614;-54
2022/05/14 01:29:11;;;;;;;11.23;6.72;;;;;;;18.60;53.62;94564.47;4144887;28;20568;-53
2022/05/14 01:31:44;;;;;;;8.15;6.32;;;;;;;18.66;53.58;94560.97;4144730;28;20124;-54
2022/05/14 01:33:46;;;;;;;12.45;6.78;;;;;;;18.73;53.36;94559.09;4137090;28;20054;-54
2022/05/14 01:35:47;;;;;;;9.45;7.00;;;;;;;18.77;53.48;94552.31;4144890;28;20065;-54
2022/05/14 01:37:49;;;;;;;10.70;6.85;;;;;;;18.80;53.23;94551.13;4144267;28;20132;-53
2022/05/14 01:39:51;;;;;;;12.15;6.60;;;;;;;18.86;53.32;94552.91;4143390;28;20062;-53
2022/05/14 01:41:54;;;;;;;10.15;6.70;;;;;;;18.91;53.23;94547.81;4144347;28;20061;-55
2022/05/14 01:43:56;;;;;;;8.63;6.57;;;;;;;18.92;53.11;94548.59;4142769;28;20092;-54
2022/05/14 01:45:58;;;;;;;10.70;6.78;;;;;;;18.90;53.28;94540.03;4144397;28;20112;-56
2022/05/14 01:47:59;;;;;;;9.45;6.03;;;;;;;18.87;53.20;94540.47;4141010;28;20058;-55
2022/05/14 01:50:01;;;;;;;9.88;6.78;;;;;;;18.85;53.21;94539.88;4142318;28;20135;-55
2022/05/14 01:52:03;;;;;;;8.48;5.78;;;;;;;18.82;53.16;94538.44;4144323;28;20088;-56
2022/05/14 01:54:05;;;;;;;8.50;6.47;;;;;;;18.79;53.17;94546.84;4142580;28;20119;-56
2022/05/14 01:56:07;;;;;;;11.00;6.25;;;;;;;18.80;53.22;94537.88;4144329;28;20061;-54
2022/05/14 02:00:29;;;;;;;9.00;6.25;;;;;;;18.82;52.75;94541.09;4144301;28;20446;-53
2022/05/14 02:02:30;;;;;;;11.88;6.40;;;;;;;18.81;53.00;94542.13;4144170;28;20120;-54
2022/05/14 02:04:32;;;;;;;10.30;6.38;;;;;;;18.82;52.99;94536.63;4143567;28;20086;-57
2022/05/14 02:06:35;;;;;;;7.90;6.85;;;;;;;18.83;52.95;94545.41;4144068;28;20053;-54
2022/05/14 02:08:37;;;;;;;8.90;6.13;;;;;;;18.81;53.08;94545.59;4140863;28;20054;-55
2022/05/14 02:10:39;;;;;;;10.35;6.22;;;;;;;18.82;53.20;94538.44;4142760;28;20499;-54
2022/05/14 02:12:40;;;;;;;9.68;6.60;;;;;;;18.83;53.03;94542.75;4144589;28;20050;-60
2022/05/14 02:14:44;;;;;;;9.73;6.55;;;;;;;18.85;52.79;94542.53;4144066;28;20569;-57
2022/05/14 02:16:45;;;;;;;10.90;6.30;;;;;;;18.88;52.70;94547.41;4144085;28;20415;-58
2022/05/14 02:18:47;;;;;;;8.30;6.00;;;;;;;18.85;52.75;94537.22;4143658;28;20054;-59
2022/05/14 02:20:49;;;;;;;8.07;6.50;;;;;;;18.82;52.90;94543.75;4144142;28;20054;-58
2022/05/14 02:22:51;;;;;;;9.38;5.90;;;;;;;18.80;52.74;94541.34;4143573;28;20494;-58
2022/05/14 02:24:54;;;;;;;8.98;6.75;;;;;;;18.80;52.80;94541.34;4143254;28;20042;-58
2022/05/14 02:26:56;;;;;;;11.90;6.10;;;;;;;18.79;53.12;94546.84;4144277;28;20060;-54
2022/05/14 02:28:57;;;;;;;8.93;6.35;;;;;;;18.77;53.08;94546.22;4144361;28;20057;-58
2022/05/14 02:30:59;;;;;;;8.27;6.07;;;;;;;18.73;53.23;94545.81;4143901;28;20121;-54
2022/05/14 02:33:01;;;;;;;9.68;7.20;;;;;;;18.72;53.39;94540.75;4143787;28;20064;-55
2022/05/14 02:35:05;;;;;;;8.57;6.03;;;;;;;18.70;53.37;94543.59;4144078;28;20050;-54
2022/05/14 02:37:06;;;;;;;10.15;6.15;;;;;;;18.68;53.32;94543.00;4143798;28;20066;-52
2022/05/14 02:39:08;;;;;;;11.75;5.78;;;;;;;18.68;53.43;94536.88;4142305;28;20103;-53
2022/05/14 02:41:10;;;;;;;8.40;6.70;;;;;;;18.62;53.61;94539.34;4143919;28;20061;-55
2022/05/14 02:43:12;;;;;;;8.35;6.40;;;;;;;18.63;53.58;94540.19;4143485;28;20058;-55
2022/05/14 02:45:14;;;;;;;12.55;7.15;;;;;;;18.63;53.60;94540.19;4143303;28;20104;-54
2022/05/14 02:47:17;;;;;;;11.00;6.95;;;;;;;18.62;53.77;94543.84;4143503;28;20050;-52
2022/05/14 02:49:19;;;;;;;12.23;6.85;;;;;;;18.55;53.84;94545.72;4143248;28;20386;-51
2022/05/14 02:51:21;;;;;;;12.95;6.32;;;;;;;18.45;54.26;94540.06;4143631;28;20064;-51
2022/05/14 02:53:23;;;;;;;10.15;7.68;;;;;;;18.41;54.46;94545.81;4141862;28;20054;-50
2022/05/14 02:55:25;;;;;;;11.52;7.70;;;;;;;18.42;54.35;94546.59;4143667;28;20066;-53
2022/05/14 02:57:27;;;;;;;10.75;7.10;;;;;;;18.42;54.71;94549.25;4143188;28;20364;-52
2022/05/14 02:59:28;;;;;;;13.27;7.22;;;;;;;18.41;54.71;94547.63;4143194;28;20054;-54
2022/05/14 03:01:30;;;;;;;11.50;7.55;;;;;;;18.43;54.76;94545.56;4143182;28;20120;-53
2022/05/14 03:03:32;;;;;;;11.57;6.65;;;;;;;18.46;54.58;94549.66;4143025;28;20057;-56
2022/05/14 03:05:33;;;;;;;10.88;6.93;;;;;;;18.48;54.70;94545.75;4141820;28;20418;-53
2022/05/14 03:07:35;;;;;;;10.98;7.47;;;;;;;18.51;54.87;94549.81;4143198;28;20489;-52
2022/05/14 03:09:38;;;;;;;12.25;7.65;;;;;;;18.45;55.06;94551.47;4139791;28;20561;-54
2022/05/14 03:11:40;;;;;;;10.55;7.68;;;;;;;18.39;55.16;94549.66;4143036;28;20467;-56
2022/05/14 03:13:43;;;;;;;12.85;7.07;;;;;;;18.37;55.08;94557.84;4157831;28;20344;-58
2022/05/14 03:15:44;;;;;;;11.52;6.68;;;;;;;18.32;55.09;94560.31;4143125;28;20099;-54
2022/05/14 03:17:46;;;;;;;12.95;6.90;;;;;;;18.27;55.19;94557.47;4143174;28;20053;-56
2022/05/14 03:19:48;;;;;;;10.77;6.90;;;;;;;18.24;55.45;94560.56;4142807;28;20131;-54
2022/05/14 03:21:49;;;;;;;10.95;7.50;;;;;;;18.32;55.01;94559.50;4143020;28;20045;-50
2022/05/14 03:23:51;;;;;;;12.35;7.32;;;;;;;18.33;54.97;94559.28;4141495;28;20158;-51
2022/05/14 03:25:53;;;;;;;12.23;7.35;;;;;;;18.34;55.09;94560.91;4143170;28;20054;-52
2022/05/14 03:27:54;;;;;;;12.90;8.07;;;;;;;18.37;55.03;94555.19;4142934;28;20050;-53
2022/05/14 03:29:57;;;;;;;13.43;7.70;;;;;;;18.37;54.93;94544.59;4143034;28;20153;-52
2022/05/14 03:31:58;;;;;;;13.00;7.45;;;;;;;18.38;54.80;94551.50;4143153;28;20419;-54
2022/05/14 03:34:01;;;;;;;12.38;6.75;;;;;;;18.39;54.74;94555.81;4142512;28;20108;-53
2022/05/14 03:36:03;;;;;;;11.02;7.50;;;;;;;18.46;54.70;94560.28;4142974;28;20050;-56
2022/05/14 03:38:05;;;;;;;11.63;6.75;;;;;;;18.47;54.64;94546.78;4141337;28;20061;-54
2022/05/14 03:40:09;;;;;;;11.85;6.78;;;;;;;18.50;54.53;94561.44;4142868;28;20053;-54
2022/05/14 03:42:10;;;;;;;;;;;;;;;18.49;54.19;94565.13;4143287;28;20057;-53
2022/05/14 03:44:12;;;;;;;11.40;7.45;;;;;;;18.46;54.06;94560.28;4141186;28;19932;-55
2022/05/14 03:46:14;;;;;;;11.60;7.53;;;;;;;18.50;54.37;94558.78;4142764;28;20042;-54
2022/05/14 03:48:16;;;;;;;11.45;7.25;;;;;;;18.52;54.00;94562.88;4137103;28;20065;-54
2022/05/14 03:50:18;;;;;;;12.25;7.57;;;;;;;18.52;54.20;94562.06;4126533;28;20085;-53
2022/05/14 03:52:20;;;;;;;16.52;8.27;;;;;;;18.50;54.38;94564.09;4141330;28;20537;-54
2022/05/14 03:54:22;;;;;;;11.85;8.30;;;;;;;18.39;54.97;94558.47;4137327;28;20080;-55
2022/05/14 03:56:24;;;;;;;12.07;7.82;;;;;;;18.36;55.10;94574.78;4142377;28;20107;-53
2022/05/14 03:58:26;;;;;;;12.63;7.55;;;;;;;18.36;54.84;94569.47;4142522;28;20049;-54
2022/05/14 04:00:28;;;;;;;11.13;6.78;;;;;;;18.36;54.60;94561.50;4142538;28;20123;-55
2022/05/14 04:02:29;;;;;;;12.35;6.70;;;;;;;18.37;54.80;94565.81;4142669;28;20093;-55
2022/05/14 04:04:32;;;;;;;9.35;6.93;;;;;;;18.33;54.79;94572.56;4142151;28;20057;-53
2022/05/14 04:06:35;;;;;;;8.40;6.47;;;;;;;18.33;54.58;94574.41;4142978;28;20050;-53
2022/05/14 04:08:36;;;;;;;10.05;7.13;;;;;;;18.31;54.76;94581.75;4141219;28;20119;-54
2022/05/14 04:10:38;;;;;;;13.93;7.53;;;;;;;18.31;54.81;94574.59;4135193;28;20077;-54
2022/05/14 04:12:40;;;;;;;12.80;7.47;;;;;;;18.35;54.52;94586.41;4139993;28;20132;-54
2022/05/14 04:14:42;;;;;;;14.43;7.60;;;;;;;18.31;54.65;94585.22;4142399;28;20426;-56
2022/05/14 04:16:43;;;;;;;11.93;7.45;;;;;;;18.23;54.43;94587.28;4142243;28;20119;-57
2022/05/14 04:18:45;;;;;;;11.23;6.93;;;;;;;18.21;54.64;94590.13;4142093;28;20352;-55
2022/05/14 04:20:47;;;;;;;11.88;7.25;;;;;;;18.31;54.76;94595.00;4142240;28;20050;-55
2022/05/14 04:22:49;;;;;;;12.07;7.45;;;;;;;18.37;54.59;94586.22;4142059;28;20085;-52
2022/05/14 04:24:51;;;;;;;12.13;7.15;;;;;;;18.41;54.81;94590.88;4141158;28;20045;-55
2022/05/14 04:26:53;;;;;;;12.90;6.95;;;;;;;18.46;54.38;94598.22;4142040;28;20050;-55
2022/05/14 04:28:55;;;;;;;13.35;7.40;;;;;;;18.53;54.22;94601.63;4141025;28;20054;-53
2022/05/14 04:30:57;;;;;;;14.88;7.15;;;;;;;18.59;53.99;94600.81;4142437;28;20124;-54
2022/05/14 04:32:59;;;;;;;11.85;7.70;;;;;;;18.71;53.74;94603.59;4143425;28;20050;-53
2022/05/14 04:35:00;;;;;;;14.95;7.78;;;;;;;18.80;53.49;94604.22;4147709;28;20586;-52
2022/05/14 04:37:02;;;;;;;12.70;8.32;;;;;;;18.76;53.21;94602.97;4147802;28;20057;-53
2022/05/14 04:39:04;;;;;;;11.75;7.78;;;;;;;18.79;53.40;94616.66;4146119;28;20058;-51
2022/05/14 04:41:06;;;;;;;10.60;7.80;;;;;;;18.77;53.34;94607.25;4147770;28;20053;-49
2022/05/14 04:43:09;;;;;;;17.17;8.52;;;;;;;18.69;53.24;94616.28;4147473;28;20046;-55
2022/05/14 04:45:11;;;;;;;16.58;8.63;;;;;;;18.57;53.58;94617.97;4147748;28;20084;-53
2022/05/14 04:47:16;;;;;;;18.25;8.82;;;;;;;18.45;53.90;94616.97;4147700;28;20096;-55
2022/05/14 04:49:17;;;;;;;12.05;8.55;;;;;;;18.39;54.42;94613.31;4133560;28;20054;-53
2022/05/14 04:51:19;;;;;;;13.82;8.70;;;;;;;18.48;54.35;94625.34;4131510;28;20137;-52
2022/05/14 04:53:21;;;;;;;12.32;9.00;;;;;;;18.61;54.19;94616.50;4129775;28;20124;-54
2022/05/14 04:55:23;;;;;;;11.07;8.07;;;;;;;18.67;54.07;94628.09;4131442;28;20329;-55
2022/05/14 04:57:24;;;;;;;12.57;8.23;;;;;;;18.77;53.84;94615.22;4131028;28;20112;-55
2022/05/14 04:59:26;;;;;;;12.98;8.45;;;;;;;18.86;53.36;94615.81;4142406;28;20459;-56
2022/05/14 05:01:28;;;;;;;12.38;9.70;;;;;;;18.88;53.36;94619.06;4147575;28;20435;-54
2022/05/14 05:03:30;;;;;;;11.52;8.57;;;;;;;18.90;53.36;94620.47;4146968;28;20073;-52
2022/05/14 05:05:38;;;;;;;15.00;8.73;;;;;;;18.98;53.38;94624.72;4147590;28;20045;-54
2022/05/14 05:07:40;;;;;;;14.57;8.75;;;;;;;19.08;53.12;94619.78;4147519;28;20136;-56
2022/05/14 05:09:42;;;;;;;13.38;8.43;;;;;;;19.14;52.87;94621.56;4145923;28;20065;-54
2022/05/14 05:11:43;;;;;;;12.43;8.85;;;;;;;19.15;52.65;94628.50;4141896;28;20486;-55
2022/05/14 05:13:45;;;;;;;15.85;8.70;;;;;;;19.20;52.86;94633.19;4145320;28;20564;-56
2022/05/14 05:15:47;;;;;;;15.45;8.45;;;;;;;19.28;52.44;94624.97;4147659;28;20164;-54
2022/05/14 05:17:49;;;;;;;11.07;8.10;;;;;;;19.27;52.20;94630.47;4161970;28;20194;-55
2022/05/14 05:19:51;;;;;;;10.35;8.80;;;;;;;19.31;52.14;94631.69;4147350;28;20108;-52
2022/05/14 05:21:52;;;;;;;11.25;7.85;;;;;;;19.41;52.07;94632.03;4139729;28;20534;-55
2022/05/14 05:23:54;;;;;;;10.85;8.20;;;;;;;19.53;51.94;94634.78;4129648;28;20487;-54
2022/05/14 05:25:57;;;;;;;15.82;8.32;;;;;;;19.65;51.71;94631.22;4130853;28;20470;-57
2022/05/14 05:27:58;;;;;;;11.90;8.43;;;;;;;19.79;51.28;94623.19;4131140;28;20084;-56
2022/05/14 05:30:01;;;;;;;13.32;7.70;;;;;;;19.91;51.02;94632.03;4131204;28;20057;-53
2022/05/14 05:32:03;;;;;;;11.50;7.93;;;;;;;20.01;50.75;94629.72;4131013;28;20054;-55
2022/05/14 05:34:05;;;;;;;11.95;8.85;;;;;;;20.14;50.51;94631.44;4130666;28;20137;-53
2022/05/14 05:36:07;;;;;;;14.98;8.93;;;;;;;20.17;50.09;94635.50;4131119;28;20120;-54
2022/05/14 05:38:10;;;;;;;14.38;10.27;;;;;;;19.65;51.29;94644.50;4129376;28;20053;-52
2022/05/14 05:40:12;;;;;;;12.88;9.90;;;;;;;19.57;52.09;94642.09;4130855;28;20054;-53
2022/05/14 05:42:13;;;;;;;14.68;9.52;;;;;;;19.45;52.39;94643.84;4135833;28;20045;-54
2022/05/14 05:44:16;;;;;;;16.88;9.63;;;;;;;19.48;52.40;94646.06;4146497;28;20045;-57
2022/05/14 05:46:18;;;;;;;16.05;10.18;;;;;;;19.47;52.63;94647.09;4143975;28;20389;-56
2022/05/14 05:48:20;;;;;;;16.45;10.57;;;;;;;19.57;52.70;94647.41;4138487;28;20074;-54
2022/05/14 05:50:21;;;;;;;15.40;10.10;;;;;;;19.77;52.00;94642.00;4128200;28;20541;-52
2022/05/14 05:52:24;;;;;;;13.68;10.43;;;;;;;19.85;51.86;94643.53;4128460;28;20113;-56
2022/05/14 05:56:46;;;;;;;16.00;10.48;;;;;;;20.04;51.45;94639.91;4128341;28;20161;-57
2022/05/14 05:58:48;;;;;;;12.40;9.98;;;;;;;20.19;51.22;94644.06;4134100;28;20052;-55
2022/05/14 06:00:49;;;;;;;16.65;10.43;;;;;;;20.27;51.17;94641.13;4144609;28;20081;-55
2022/05/14 06:02:51;;;;;;;12.05;9.35;;;;;;;20.32;51.25;94646.59;4144413;28;20165;-53
2022/05/14 06:04:53;;;;;;;19.52;10.73;;;;;;;20.24;51.30;94644.19;4144053;28;20135;-51
2022/05/14 06:06:54;;;;;;;22.00;10.77;;;;;;;20.18;51.98;94650.44;4144126;28;20042;-53
2022/05/14 06:08:56;;;;;;;12.07;9.82;;;;;;;19.89;52.85;94644.75;4142113;28;20475;-53
2022/05/14 06:10:58;;;;;;;12.07;9.48;;;;;;;19.54;53.78;94655.81;4144183;28;20062;-49
2022/05/14 06:13:00;;;;;;;14.07;10.23;;;;;;;19.60;54.25;94654.16;4135651;28;20062;-52
2022/05/14 06:15:01;;;;;;;14.23;9.77;;;;;;;19.47;54.73;94649.75;4144045;28;20050;-55
2022/05/14 06:17:03;;;;;;;15.07;9.73;;;;;;;19.46;54.97;94649.97;4144312;28;20054;-54
2022/05/14 06:19:06;;;;;;;20.20;9.27;;;;;;;19.45;55.13;94649.16;4143846;28;20094;-54
2022/05/14 06:21:09;;;;;;;16.42;9.45;;;;;;;19.48;55.35;94653.22;4143971;28;20349;-54
2022/05/14 06:23:11;;;;;;;11.95;8.18;;;;;;;19.49;55.64;94655.66;4142294;28;20050;-54
2022/05/14 06:25:13;;;;;;;11.70;7.57;;;;;;;19.60;55.77;94660.28;4144047;28;20137;-52
2022/05/14 06:27:16;;;;;;;14.02;7.65;;;;;;;19.71;55.77;94652.69;4144096;28;20131;-53
2022/05/14 06:29:17;;;;;;;10.02;6.97;;;;;;;19.71;55.14;94652.69;4143932;28;20110;-55
2022/05/14 06:31:19;;;;;;;11.98;7.05;;;;;;;19.84;54.75;94661.34;4144278;28;20050;-52
2022/05/14 06:33:21;;;;;;;11.18;7.45;;;;;;;20.07;54.36;94651.97;4143566;28;20402;-53
2022/05/14 06:35:23;;;;;;;12.05;7.75;;;;;;;20.30;53.53;94655.81;4143822;28;20338;-53
2022/05/14 06:37:25;;;;;;;10.48;7.72;;;;;;;20.50;52.97;94656.44;4135365;28;20058;-55
2022/05/14 06:39:27;;;;;;;11.13;6.47;;;;;;;20.64;52.72;94651.78;4139339;28;20061;-51
2022/05/14 06:41:28;;;;;;;13.05;8.40;;;;;;;20.56;53.33;94662.69;4143617;28;20324;-51
2022/05/14 06:43:30;;;;;;;11.43;8.10;;;;;;;20.71;52.93;94655.19;4143403;28;20050;-51
2022/05/14 06:45:32;;;;;;;13.45;8.60;;;;;;;20.93;52.31;94658.22;4143759;28;20046;-55
2022/05/14 06:47:33;;;;;;;15.23;7.82;;;;;;;21.05;51.87;94658.25;4143954;28;20139;-51
2022/05/14 06:49:35;;;;;;;10.88;7.43;;;;;;;21.09;51.36;94659.44;4127434;28;20054;-51
2022/05/14 06:51:38;;;;;;;10.00;7.60;;;;;;;21.06;51.71;94659.91;4127518;28;20054;-54
2022/05/14 06:53:40;;;;;;;10.40;7.13;;;;;;;21.05;51.45;94664.38;4126237;28;20054;-56
2022/05/14 06:55:43;;;;;;;12.98;8.00;;;;;;;21.00;51.88;94663.44;4126925;28;20200;-56
2022/05/14 06:57:46;;;;;;;10.88;7.60;;;;;;;20.53;52.61;94660.50;4127501;28;20058;-57
2022/05/14 06:59:48;;;;;;;8.82;6.82;;;;;;;20.43;53.27;94671.63;4137539;28;20054;-53
2022/05/14 07:01:50;;;;;;;9.05;7.05;;;;;;;20.45;53.57;94673.03;4143477;28;20494;-56
2022/05/14 07:08:34;;;;;;;9.05;7.35;;;;;;;20.87;52.87;94661.78;4125643;28;20050;-52
2022/05/14 07:10:35;;;;;;;12.43;7.70;;;;;;;21.18;52.19;94660.72;4127160;28;20050;-57
2022/05/14 07:12:37;;;;;;;12.18;8.00;;;;;;;21.27;52.15;94667.41;4146161;28;20045;-55
2022/05/14 07:14:44;;;;;;;12.10;8.43;;;;;;;21.41;51.16;94667.19;4139237;28;20049;-56
2022/05/14 07:16:47;;;;;;;13.40;7.75;;;;;;;21.34;51.34;94666.47;4143323;28;21090;-60
2022/05/14 07:18:49;;;;;;;12.38;7.70;;;;;;;21.47;51.18;94666.31;4142989;28;20054;-55
2022/05/14 07:20:51;;;;;;;13.82;7.22;;;;;;;21.31;51.20;94669.59;4142746;28;20069;-54
2022/05/14 07:22:52;;;;;;;16.33;7.32;;;;;;;21.47;50.78;94675.13;4142177;28;20089;-53
2022/05/14 07:24:54;;;;;;;13.65;7.85;;;;;;;21.38;51.13;94671.13;4140783;28;20111;-56
2022/05/14 07:26:58;;;;;;;12.20;7.30;;;;;;;21.43;50.48;94673.16;4143376;28;20045;-50
2022/05/14 07:29:01;;;;;;;10.57;7.00;;;;;;;21.23;51.27;94679.53;4143148;28;20045;-51
2022/05/14 07:31:03;;;;;;;12.82;7.95;;;;;;;21.47;51.04;94672.47;4143284;28;20097;-55
2022/05/14 07:33:05;;;;;;;8.73;7.13;;;;;;;21.72;50.06;94678.66;4142486;28;20042;-53
2022/05/14 07:35:07;;;;;;;8.43;7.00;;;;;;;21.80;49.77;94681.00;4142804;28;20196;-53
2022/05/14 07:37:13;;;;;;;10.63;6.90;;;;;;;21.68;50.00;94680.97;4142356;28;20056;-54
2022/05/14 07:39:16;;;;;;;12.93;6.88;;;;;;;21.87;50.03;94676.38;4140355;28;20065;-56
2022/05/14 07:41:18;;;;;;;;;;;;;;;22.06;49.46;94677.09;4143394;28;20064;-53
2022/05/14 07:43:23;;;;;;;8.68;6.60;;;;;;;22.21;49.30;94680.09;4156647;28;19979;-53
2022/05/14 07:45:32;;;;;;;14.88;7.45;;;;;;;22.24;49.37;94684.19;4157889;28;20065;-57
2022/05/14 07:47:35;;;;;;;11.10;6.85;;;;;;;22.07;49.38;94682.19;4159007;28;20049;-55
2022/05/14 07:49:37;;;;;;;10.70;7.82;;;;;;;21.84;49.75;94687.50;4141119;28;20058;-54
2022/05/14 07:51:39;;;;;;;9.77;6.80;;;;;;;21.84;49.97;94677.63;4142855;28;20053;-55
2022/05/14 07:53:41;;;;;;;11.30;7.38;;;;;;;21.99;49.52;94669.19;4141248;28;20072;-54
2022/05/14 07:55:43;;;;;;;12.05;7.80;;;;;;;22.17;49.15;94681.59;4142609;28;20060;-56
2022/05/14 07:57:45;;;;;;;13.75;8.90;;;;;;;22.26;49.09;94684.78;4142903;28;20053;-54
2022/05/14 07:59:47;;;;;;;9.25;6.90;;;;;;;22.57;48.86;94678.28;4142717;28;20153;-54
2022/05/14 08:01:48;;;;;;;10.35;7.15;;;;;;;22.77;47.49;94685.88;4142740;28;20054;-57
2022/05/14 08:03:51;;;;;;;11.70;7.32;;;;;;;22.88;47.20;94676.22;4142251;28;20045;-56
2022/05/14 08:05:57;;;;;;;11.88;7.20;;;;;;;22.94;47.43;94675.28;4142551;28;20065;-52
2022/05/14 08:07:58;;;;;;;16.40;7.18;;;;;;;23.16;47.66;94686.16;4140708;28;20459;-56
2022/05/14 08:10:01;;;;;;;8.30;6.72;;;;;;;23.31;47.11;94689.13;4142323;28;20619;-54
2022/05/14 08:12:03;;;;;;;9.85;6.95;;;;;;;23.49;46.38;94682.00;4143056;28;20057;-58
2022/05/14 08:14:04;;;;;;;12.48;7.25;;;;;;;23.37;46.07;94683.91;4139067;28;20391;-58
2022/05/14 08:16:07;;;;;;;11.10;7.35;;;;;;;23.37;46.72;94686.56;4139223;28;20124;-57
2022/05/14 08:18:09;;;;;;;10.73;6.83;;;;;;;23.34;46.47;94679.00;4142773;28;20049;-56
2022/05/14 08:20:12;;;;;;;11.95;7.20;;;;;;;23.60;45.62;94678.44;4142827;28;20295;-58
2022/05/14 08:24:34;;;;;;;12.23;7.13;;;;;;;23.71;45.79;94669.53;4141493;28;20112;-53
2022/05/14 08:26:36;;;;;;;9.90;7.20;;;;;;;23.66;45.55;94666.78;4142448;28;20045;-57
2022/05/14 08:28:38;;;;;;;9.82;7.25;;;;;;;23.58;45.27;94672.50;4142366;28;20367;-54
2022/05/14 08:30:39;;;;;;;9.02;6.68;;;;;;;23.80;45.70;94671.84;4142462;28;20457;-54
2022/05/14 08:32:41;;;;;;;13.35;7.20;;;;;;;24.06;45.52;94659.69;4142466;28;20050;-52
2022/05/14 08:34:43;;;;;;;9.63;7.07;;;;;;;23.80;45.77;94658.47;4141995;28;20508;-55
2022/05/14 08:36:45;;;;;;;11.65;7.40;;;;;;;24.08;44.83;94665.59;4142703;28;20050;-55
2022/05/14 08:38:47;;;;;;;12.45;8.75;;;;;;;23.84;46.13;94662.28;4141009;28;20145;-54
2022/05/14 08:40:56;;;;;;;9.88;7.45;;;;;;;23.82;45.98;94661.72;4142246;28;20072;-59
2022/05/14 08:43:03;;;;;;;8.45;6.50;;;;;;;24.12;45.82;94658.72;4140631;28;20057;-56
2022/05/14 08:45:06;;;;;;;11.20;7.07;;;;;;;24.40;45.11;94655.09;4142530;28;20148;-54
2022/05/14 08:47:26;;;;;;;14.50;6.43;;;;;;;24.56;45.09;94664.19;4142149;28;20375;-56
2022/05/14 08:49:42;;;;;;;11.13;7.07;;;;;;;23.55;47.17;94666.81;4141739;28;20053;-55
2022/05/14 08:51:48;;;;;;;11.57;7.00;;;;;;;23.69;46.79;94665.47;4142401;28;20108;-57
2022/05/14 08:53:50;;;;;;;14.63;7.88;;;;;;;23.68;46.62;94670.03;4140947;28;20123;-55
2022/05/14 08:56:22;;;;;;;11.18;6.50;;;;;;;23.83;46.19;94668.66;4142205;28;20109;-55
2022/05/14 08:58:34;;;;;;;9.82;6.88;;;;;;;24.12;45.66;94659.50;4142132;28;20057;-55
2022/05/14 09:00:35;;;;;;;13.63;7.13;;;;;;;24.09;45.86;94657.34;4142362;28;20053;-53
2022/05/14 09:02:47;;;;;;;10.73;6.90;;;;;;;23.67;46.19;94667.59;4140848;28;20062;-58
2022/05/14 09:04:52;;;;;;;8.15;6.70;;;;;;;24.05;45.67;94655.41;4141975;28;20498;-56
2022/05/14 09:06:54;;;;;;;8.23;6.25;;;;;;;23.88;45.19;94668.78;4142187;28;20049;-54
2022/05/14 09:08:56;;;;;;;10.98;6.80;;;;;;;23.95;45.83;94652.56;4140535;28;20053;-54
2022/05/14 09:11:06;;;;;;;19.67;7.80;;;;;;;24.20;46.07;94670.84;4142306;28;20057;-55
2022/05/14 09:13:12;;;;;;;9.93;6.85;;;;;;;24.25;45.55;94669.06;4141858;28;20351;-55
2022/05/14 09:15:15;;;;;;;11.02;6.97;;;;;;;24.48;44.96;94673.47;4138070;28;20566;-57
2022/05/14 09:17:22;;;;;;;8.60;6.18;;;;;;;24.49;44.27;94691.13;4128286;28;20252;-54
2022/05/14 09:19:27;;;;;;;14.55;6.18;;;;;;;24.22;44.38;94682.13;4126492;28;20061;-54
2022/05/14 09:21:31;;;;;;;9.45;5.82;;;;;;;24.10;44.63;94684.91;4129045;28;20390;-57
2022/05/14 09:23:41;;;;;;;10.55;6.03;;;;;;;24.52;44.04;94673.75;4127326;28;20582;-55
2022/05/14 09:25:43;;;;;;;7.32;5.75;;;;;;;24.55;43.74;94672.47;4128840;28;20053;-53
2022/05/14 09:27:51;;;;;;;9.63;6.00;;;;;;;24.62;43.79;94662.38;4128750;28;20046;-54
2022/05/14 09:29:55;;;;;;;8.93;6.07;;;;;;;24.45;44.82;94662.38;4128949;28;20050;-54
2022/05/14 09:32:11;;;;;;;8.85;6.03;;;;;;;24.28;44.95;94673.13;4126905;28;20471;-54
2022/05/14 09:34:15;;;;;;;12.75;6.78;;;;;;;23.82;45.58;94673.22;4128661;28;20109;-54
2022/05/14 09:36:22;;;;;;;8.30;5.75;;;;;;;23.70;45.94;94677.78;4128566;28;20050;-53
2022/05/14 09:38:24;;;;;;;9.52;5.82;;;;;;;23.60;46.62;94666.94;4127317;28;20062;-55
2022/05/14 09:40:28;;;;;;;10.80;6.93;;;;;;;23.59;46.67;94673.31;4128614;28;20157;-57
2022/05/14 09:42:44;;;;;;;15.88;6.65;;;;;;;23.51;46.97;94664.66;4135442;28;20400;-55
2022/05/14 09:44:51;;;;;;;9.55;6.65;;;;;;;23.46;47.43;94666.41;4143611;28;20129;-55
2022/05/14 09:47:10;;;;;;;10.57;7.18;;;;;;;23.19;48.30;94668.84;4142609;28;20053;-54
2022/05/14 09:49:19;;;;;;;10.90;6.85;;;;;;;23.09;49.67;94675.63;4144137;28;20080;-57